Williamson, Iowa
Current Conditions -  °F | °C
As of 1:15 PM on Friday 28 Nov 2014 (Local Time) from KCNC Reporting Station
Clear Clear  
Wind Chill:   Ceiling: Unl
Heat Index:   Visibility: 10mi
Dew Point: -1°   Wind: 13mph
Humidity: 61%   Direction: 170°S
Pressure: 29.82"   Gusts: NA
Location:  41.09°N, 93.25°W
Report Text: KCNC 281915Z AUTO 17011KT 10SM CLR 06/M01 A2982 RMK AO2
Loading
Personal Weather Stations






























Interactive Weather Map New forecast layout! Learn more

10-Day Weather Forecast

Advertisements
Track Severe Weather on mobile